createdAt,value
2023-02-25T00:02:13.401Z,6.37
2023-02-25T00:05:05.230Z,6.24
2023-02-25T00:07:52.093Z,6.32
2023-02-25T00:10:38.621Z,6.25
2023-02-25T00:13:25.399Z,6.25
2023-02-25T00:16:12.888Z,6.16
2023-02-25T00:19:00.005Z,5.79
2023-02-25T00:21:48.023Z,6.09
2023-02-25T00:24:34.775Z,6.01
2023-02-25T00:27:21.629Z,6.00
2023-02-25T00:30:10.950Z,5.89
2023-02-25T00:32:57.473Z,5.96
2023-02-25T00:35:44.375Z,5.88
2023-02-25T00:38:32.363Z,5.94
2023-02-25T00:41:21.076Z,5.97
2023-02-25T00:44:08.345Z,6.02
2023-02-25T00:46:55.123Z,5.96
2023-02-25T00:49:41.945Z,5.96
2023-02-25T00:52:28.593Z,5.87
2023-02-25T00:55:17.204Z,5.89
2023-02-25T00:58:04.308Z,5.83
2023-02-25T01:00:52.020Z,5.94
2023-02-25T01:03:38.806Z,5.97
2023-02-25T01:06:26.783Z,5.96
2023-02-25T01:09:14.966Z,5.92
2023-02-25T01:12:03.330Z,5.94
2023-02-25T01:14:51.135Z,5.98
2023-02-25T01:17:37.903Z,5.99
2023-02-25T01:20:24.602Z,5.86
2023-02-25T01:23:11.442Z,5.70
2023-02-25T01:25:58.221Z,5.66
2023-02-25T01:28:46.287Z,5.71
2023-02-25T01:31:33.276Z,5.78
2023-02-25T01:34:21.038Z,5.65
2023-02-25T01:37:08.017Z,5.72
2023-02-25T01:39:58.639Z,5.77
2023-02-25T01:42:45.690Z,5.73
2023-02-25T01:45:34.168Z,5.78
2023-02-25T01:48:24.100Z,5.73
2023-02-25T01:51:13.134Z,5.78
2023-02-25T01:54:02.834Z,5.74
2023-02-25T01:56:53.557Z,5.44
2023-02-25T01:59:42.748Z,5.70
2023-02-25T02:02:38.351Z,5.71
2023-02-25T02:05:38.019Z,5.76
2023-02-25T02:08:26.443Z,5.84
2023-02-25T02:11:16.732Z,5.74
2023-02-25T02:14:05.532Z,5.55
2023-02-25T02:17:06.695Z,5.79
2023-02-25T02:20:14.271Z,5.52
2023-02-25T02:23:23.613Z,5.50
2023-02-25T02:26:47.746Z,5.54
2023-02-25T02:30:10.447Z,5.41
2023-02-25T02:33:10.236Z,5.62
2023-02-25T02:36:05.198Z,5.55
2023-02-25T02:38:56.190Z,5.66
2023-02-25T02:41:47.598Z,5.78
2023-02-25T02:44:43.127Z,5.70
2023-02-25T02:47:33.360Z,5.76
2023-02-25T02:50:31.301Z,5.71
2023-02-25T02:53:23.359Z,5.73
2023-02-25T02:56:15.146Z,5.80
2023-02-25T02:59:07.742Z,5.65
2023-02-25T03:01:59.122Z,5.51
2023-02-25T03:04:49.962Z,5.51
2023-02-25T03:07:44.505Z,5.61
2023-02-25T03:10:31.355Z,5.47
2023-02-25T03:13:18.017Z,5.41
2023-02-25T03:16:08.932Z,5.52
2023-02-25T03:19:00.521Z,5.51
2023-02-25T03:21:51.752Z,5.55
2023-02-25T03:24:45.605Z,5.63
2023-02-25T03:27:36.527Z,5.63
2023-02-25T03:30:31.968Z,5.48
2023-02-25T03:33:25.746Z,5.48
2023-02-25T03:36:18.684Z,5.56
2023-02-25T03:39:10.840Z,5.40
2023-02-25T03:42:03.805Z,5.41
2023-02-25T03:44:55.147Z,5.46
2023-02-25T03:47:44.001Z,5.52
2023-02-25T03:50:34.685Z,5.40
2023-02-25T03:53:24.986Z,5.59
2023-02-25T03:56:18.532Z,5.44
2023-02-25T03:59:07.266Z,5.62
2023-02-25T04:01:55.944Z,5.59
2023-02-25T04:04:42.828Z,5.64
2023-02-25T04:07:29.782Z,5.55
2023-02-25T04:10:18.292Z,5.74
2023-02-25T04:13:06.046Z,5.61
2023-02-25T04:15:54.228Z,5.90
2023-02-25T04:18:41.480Z,5.88
2023-02-25T04:21:31.116Z,5.66
2023-02-25T04:24:17.886Z,5.60
2023-02-25T04:27:04.548Z,5.53
2023-02-25T04:29:51.547Z,5.32
2023-02-25T04:32:39.420Z,5.50
2023-02-25T04:35:25.955Z,5.44
2023-02-25T04:38:12.719Z,5.32
2023-02-25T04:40:59.356Z,5.48
2023-02-25T04:43:46.520Z,5.38
2023-02-25T04:46:33.900Z,5.11
2023-02-25T04:49:23.786Z,5.17
2023-02-25T04:52:10.202Z,5.33
2023-02-25T04:54:57.097Z,5.25
2023-02-25T04:57:43.975Z,5.17
2023-02-25T05:00:30.685Z,5.25
2023-02-25T05:03:17.362Z,5.14
2023-02-25T05:06:07.128Z,5.22
2023-02-25T05:08:53.822Z,5.16
2023-02-25T05:11:40.480Z,5.14
2023-02-25T05:14:27.327Z,5.18
2023-02-25T05:17:15.920Z,5.05
2023-02-25T05:20:02.370Z,5.18
2023-02-25T05:22:50.458Z,5.21
2023-02-25T05:25:41.294Z,5.18
2023-02-25T05:28:28.255Z,5.13
2023-02-25T05:31:15.077Z,5.08
2023-02-25T05:34:01.594Z,5.04
2023-02-25T05:36:48.310Z,4.89
2023-02-25T05:39:36.487Z,5.01
2023-02-25T05:42:23.137Z,4.88
2023-02-25T05:45:11.415Z,5.07
2023-02-25T05:47:58.254Z,4.79
2023-02-25T05:50:44.995Z,4.89
2023-02-25T05:53:31.982Z,4.68
2023-02-25T05:56:22.764Z,5.04
2023-02-25T05:59:09.615Z,5.19
2023-02-25T06:01:56.296Z,5.00
2023-02-25T06:04:43.015Z,5.02
2023-02-25T06:07:30.984Z,4.85
2023-02-25T06:10:18.043Z,4.85
2023-02-25T06:13:06.449Z,4.52
2023-02-25T06:15:53.958Z,5.12
2023-02-25T06:18:40.542Z,5.12
2023-02-25T06:21:27.982Z,5.11
2023-02-25T06:24:15.624Z,5.06
2023-02-25T06:27:02.541Z,4.99
2023-02-25T06:29:50.647Z,5.03
2023-02-25T06:32:37.753Z,5.00
2023-02-25T06:35:24.799Z,4.69
2023-02-25T06:38:11.652Z,4.98
2023-02-25T06:40:58.302Z,4.79
2023-02-25T06:43:45.335Z,4.85
2023-02-25T06:46:33.566Z,4.93
2023-02-25T06:49:20.441Z,4.91
2023-02-25T06:52:07.017Z,4.81
2023-02-25T06:54:54.259Z,4.90
2023-02-25T06:57:41.026Z,4.81
2023-02-25T07:00:27.847Z,4.84
2023-02-25T07:03:17.287Z,4.74
2023-02-25T07:06:04.050Z,4.41
2023-02-25T07:08:50.840Z,4.83
2023-02-25T07:11:37.419Z,4.71
2023-02-25T07:14:24.174Z,4.66
2023-02-25T07:17:10.956Z,4.55
2023-02-25T07:19:59.188Z,4.75
2023-02-25T07:22:46.142Z,4.74
2023-02-25T07:25:33.164Z,4.43
2023-02-25T07:28:19.670Z,4.61
2023-02-25T07:31:11.777Z,4.64
2023-02-25T07:34:03.579Z,4.68
2023-02-25T07:36:51.348Z,4.94
2023-02-25T07:39:38.564Z,4.85
2023-02-25T07:42:25.283Z,4.78
2023-02-25T07:45:17.868Z,4.50
2023-02-25T07:48:04.284Z,4.79
2023-02-25T07:50:51.097Z,4.83
2023-02-25T07:53:39.524Z,4.94
2023-02-25T07:56:28.373Z,5.01
2023-02-25T07:59:15.060Z,5.16
2023-02-25T08:02:01.848Z,5.20
2023-02-25T08:04:48.722Z,5.16
2023-02-25T08:07:35.455Z,5.28
2023-02-25T08:10:23.699Z,5.13
2023-02-25T08:13:10.587Z,5.11
2023-02-25T08:15:57.387Z,5.31
2023-02-25T08:18:44.502Z,5.18
2023-02-25T08:21:31.353Z,5.20
2023-02-25T08:24:20.698Z,5.20
2023-02-25T08:27:09.766Z,5.11
2023-02-25T08:29:57.111Z,5.14
2023-02-25T08:32:43.935Z,5.22
2023-02-25T08:35:30.527Z,5.17
2023-02-25T08:38:18.297Z,5.21
2023-02-25T08:41:06.335Z,5.03
2023-02-25T08:43:55.777Z,5.09
2023-02-25T08:46:42.446Z,5.11
2023-02-25T08:49:29.222Z,5.25
2023-02-25T08:52:16.053Z,5.18
2023-02-25T08:55:03.298Z,5.15
2023-02-25T08:57:50.061Z,5.36
2023-02-25T09:00:39.278Z,5.28
2023-02-25T09:03:25.970Z,5.44
2023-02-25T09:06:12.781Z,5.39
2023-02-25T09:08:59.766Z,5.42
2023-02-25T09:11:48.149Z,5.45
2023-02-25T09:14:35.169Z,5.39
2023-02-25T09:17:23.217Z,5.51
2023-02-25T09:20:11.977Z,5.48
2023-02-25T09:22:59.853Z,5.33
2023-02-25T09:25:46.389Z,5.35
2023-02-25T09:28:33.236Z,5.39
2023-02-25T09:31:20.195Z,5.51
2023-02-25T09:34:13.682Z,5.39
2023-02-25T09:37:00.207Z,5.40
2023-02-25T09:39:47.084Z,5.51
2023-02-25T09:42:52.451Z,5.16
2023-02-25T09:45:39.138Z,5.62
2023-02-25T09:48:30.472Z,5.38
2023-02-25T09:51:22.618Z,5.47
2023-02-25T09:54:19.849Z,5.39
2023-02-25T09:57:08.646Z,5.68
2023-02-25T09:59:55.380Z,5.41
2023-02-25T10:02:50.153Z,5.44
2023-02-25T10:05:44.548Z,5.42
2023-02-25T10:08:39.023Z,5.20
2023-02-25T10:11:39.158Z,5.46
2023-02-25T10:14:48.661Z,5.67
2023-02-25T10:17:44.474Z,5.56
2023-02-25T10:20:58.418Z,5.44
2023-02-25T10:24:00.195Z,5.42
2023-02-25T10:26:50.702Z,5.38
2023-02-25T10:29:41.928Z,5.34
2023-02-25T10:32:32.481Z,5.31
2023-02-25T10:35:23.115Z,5.72
2023-02-25T10:38:11.028Z,5.95
2023-02-25T10:41:00.259Z,6.06
2023-02-25T10:43:47.268Z,5.89
2023-02-25T10:46:40.613Z,6.44
2023-02-25T10:49:30.265Z,6.99
2023-02-25T10:52:18.870Z,6.90
2023-02-25T10:55:05.733Z,6.70
2023-02-25T10:57:53.662Z,6.18
2023-02-25T11:00:44.426Z,6.08
2023-02-25T11:03:35.016Z,5.50
2023-02-25T11:06:26.819Z,5.65
2023-02-25T11:09:30.581Z,6.06
2023-02-25T11:12:20.454Z,6.61
2023-02-25T11:15:43.046Z,7.30
2023-02-25T11:18:32.825Z,7.12
2023-02-25T11:21:31.237Z,6.42
2023-02-25T11:24:20.711Z,6.27
2023-02-25T11:27:08.976Z,5.85
2023-02-25T11:30:03.778Z,6.33
2023-02-25T11:32:56.121Z,6.48
2023-02-25T11:35:42.591Z,6.44
2023-02-25T11:38:33.227Z,6.67
2023-02-25T11:41:23.421Z,6.82
2023-02-25T11:44:20.471Z,6.94
2023-02-25T11:47:16.052Z,6.61
2023-02-25T11:50:18.971Z,6.13
2023-02-25T11:53:17.310Z,6.06
2023-02-25T11:56:13.257Z,5.75
2023-02-25T11:59:13.517Z,5.97
2023-02-25T12:02:21.350Z,5.85
2023-02-25T12:05:34.345Z,5.68
2023-02-25T12:08:50.189Z,5.80
2023-02-25T12:12:13.884Z,5.71
2023-02-25T12:15:27.109Z,5.63
2023-02-25T12:18:46.122Z,5.75
2023-02-25T12:22:13.106Z,5.87
2023-02-25T12:25:20.807Z,5.89
2023-02-25T12:28:45.217Z,5.60
2023-02-25T12:32:09.571Z,5.71
2023-02-25T12:35:23.106Z,5.73
2023-02-25T12:38:43.022Z,5.41
2023-02-25T12:41:49.289Z,5.44
2023-02-25T12:45:22.137Z,5.56
2023-02-25T12:48:45.309Z,5.06
2023-02-25T12:52:03.323Z,5.43
2023-02-25T12:55:17.415Z,5.55
2023-02-25T12:58:27.796Z,5.56
2023-02-25T13:01:28.332Z,5.69
2023-02-25T13:04:44.039Z,5.37
2023-02-25T13:07:45.210Z,5.32
2023-02-25T13:10:55.228Z,5.23
2023-02-25T13:14:02.877Z,5.41
2023-02-25T13:17:06.669Z,5.32
2023-02-25T13:20:18.751Z,5.34
2023-02-25T13:23:21.174Z,5.46
2023-02-25T13:26:27.604Z,5.24
2023-02-25T13:29:32.928Z,5.35
2023-02-25T13:32:29.957Z,5.38
2023-02-25T13:35:27.061Z,5.47
2023-02-25T13:38:28.781Z,5.51
2023-02-25T13:41:43.333Z,5.23
2023-02-25T13:44:43.149Z,5.25
2023-02-25T13:47:44.938Z,5.22
2023-02-25T13:50:51.510Z,5.21
2023-02-25T13:53:54.334Z,5.10
2023-02-25T13:56:57.543Z,5.07
2023-02-25T14:00:17.623Z,5.37
2023-02-25T14:03:49.195Z,5.05
2023-02-25T14:06:48.944Z,5.12
2023-02-25T14:09:44.285Z,4.87
2023-02-25T14:12:47.545Z,4.83
2023-02-25T14:15:47.826Z,4.84
2023-02-25T14:18:48.941Z,4.84
2023-02-25T14:21:54.246Z,4.86
2023-02-25T14:24:48.403Z,4.67
2023-02-25T14:27:46.464Z,4.94
2023-02-25T14:30:42.469Z,4.94
2023-02-25T14:33:53.145Z,4.48
2023-02-25T14:37:06.298Z,4.97
2023-02-25T14:40:08.450Z,5.11
2023-02-25T14:43:28.675Z,4.93
2023-02-25T14:46:33.242Z,4.98
2023-02-25T14:49:26.801Z,4.88
2023-02-25T14:52:40.758Z,4.98
2023-02-25T14:55:53.788Z,4.74
2023-02-25T14:58:59.525Z,4.80
2023-02-25T15:02:11.579Z,4.77
2023-02-25T15:05:23.200Z,4.92
2023-02-25T15:08:48.495Z,4.79
2023-02-25T15:11:52.040Z,4.54
2023-02-25T15:15:14.507Z,4.61
2023-02-25T15:18:43.669Z,4.73
2023-02-25T15:21:42.602Z,4.81
2023-02-25T15:24:40.265Z,4.76
2023-02-25T15:27:49.425Z,4.57
2023-02-25T15:31:39.009Z,4.63
2023-02-25T15:34:36.197Z,4.48
2023-02-25T15:37:32.762Z,4.60
2023-02-25T15:40:46.743Z,4.87
2023-02-25T15:43:44.882Z,4.64
2023-02-25T15:46:45.574Z,4.67
2023-02-25T15:49:35.927Z,4.69
2023-02-25T15:52:57.832Z,4.76
2023-02-25T15:55:45.334Z,4.61
2023-02-25T15:58:53.021Z,4.66
2023-02-25T16:01:42.930Z,4.50
2023-02-25T16:04:50.373Z,4.54
2023-02-25T16:07:40.120Z,4.38
2023-02-25T16:10:31.580Z,4.56
2023-02-25T16:13:28.229Z,4.57
2023-02-25T16:16:17.519Z,4.46
2023-02-25T16:19:07.009Z,4.43
2023-02-25T16:21:58.756Z,4.31
2023-02-25T16:24:49.541Z,4.32
2023-02-25T16:27:49.560Z,4.15
2023-02-25T16:30:42.260Z,4.40
2023-02-25T16:33:35.446Z,4.10
2023-02-25T16:36:38.134Z,4.30
2023-02-25T16:39:29.194Z,4.20
2023-02-25T16:42:18.403Z,4.21
2023-02-25T16:45:06.989Z,4.11
2023-02-25T16:47:58.038Z,4.04
2023-02-25T16:50:48.506Z,3.93
2023-02-25T16:53:35.176Z,3.74
2023-02-25T16:56:26.730Z,3.92
2023-02-25T16:59:19.745Z,3.92
2023-02-25T17:02:24.393Z,4.03
2023-02-25T17:05:23.692Z,3.98
2023-02-25T17:08:16.655Z,3.82
2023-02-25T17:11:06.466Z,4.02
2023-02-25T17:13:56.969Z,4.09
2023-02-25T17:16:44.340Z,4.05
2023-02-25T17:19:32.046Z,3.96
2023-02-25T17:22:22.580Z,3.90
2023-02-25T17:25:16.053Z,3.45
2023-02-25T17:28:02.855Z,3.60
2023-02-25T17:30:52.236Z,3.53
2023-02-25T17:33:48.328Z,3.57
2023-02-25T17:36:39.349Z,3.35
2023-02-25T17:39:29.389Z,3.54
2023-02-25T17:42:31.237Z,3.68
2023-02-25T17:45:42.069Z,3.65
2023-02-25T17:48:33.421Z,3.61
2023-02-25T17:51:28.265Z,3.47
2023-02-25T17:54:18.376Z,3.24
2023-02-25T17:57:10.010Z,3.50
2023-02-25T18:00:00.482Z,3.28
2023-02-25T18:02:47.425Z,3.50
2023-02-25T18:05:49.589Z,3.45
2023-02-25T18:08:52.602Z,3.49
2023-02-25T18:11:41.527Z,3.65
2023-02-25T18:14:34.386Z,3.87
2023-02-25T18:17:26.494Z,4.01
2023-02-25T18:20:30.803Z,3.87
2023-02-25T18:23:21.796Z,3.72
2023-02-25T18:26:13.280Z,3.77
2023-02-25T18:28:59.715Z,3.66
2023-02-25T18:31:46.852Z,3.56
2023-02-25T18:34:33.324Z,3.71
2023-02-25T18:37:20.568Z,3.43
2023-02-25T18:40:15.857Z,3.42
2023-02-25T18:43:02.842Z,3.45
2023-02-25T18:45:49.889Z,3.33
2023-02-25T18:48:37.229Z,3.34
2023-02-25T18:51:23.981Z,3.40
2023-02-25T18:54:16.221Z,3.44
2023-02-25T18:57:04.393Z,3.51
2023-02-25T18:59:51.144Z,3.32
2023-02-25T19:02:45.208Z,3.21
2023-02-25T19:05:32.104Z,3.10
2023-02-25T19:08:19.075Z,3.26
2023-02-25T19:11:06.153Z,3.38
2023-02-25T19:13:54.778Z,3.37
2023-02-25T19:16:41.421Z,3.32
2023-02-25T19:19:28.184Z,3.36
2023-02-25T19:22:16.150Z,3.44
2023-02-25T19:25:02.586Z,3.46
2023-02-25T19:27:49.626Z,3.42
2023-02-25T19:30:40.717Z,3.38
2023-02-25T19:33:27.533Z,3.58
2023-02-25T19:36:14.404Z,3.37
2023-02-25T19:39:01.192Z,3.22
2023-02-25T19:41:48.031Z,3.39
2023-02-25T19:44:34.868Z,3.44
2023-02-25T19:47:22.956Z,3.38
2023-02-25T19:50:11.716Z,3.20
2023-02-25T19:52:58.537Z,3.20
2023-02-25T19:55:45.413Z,3.13
2023-02-25T19:58:32.731Z,3.15
2023-02-25T20:01:19.650Z,3.39
2023-02-25T20:04:08.971Z,3.35
2023-02-25T20:06:55.482Z,3.46
2023-02-25T20:09:42.448Z,3.42
2023-02-25T20:12:29.404Z,3.50
2023-02-25T20:15:16.624Z,3.54
2023-02-25T20:18:03.141Z,3.57
2023-02-25T20:20:51.307Z,3.37
2023-02-25T20:23:39.776Z,3.46
2023-02-25T20:26:28.792Z,3.48
2023-02-25T20:29:16.339Z,3.19
2023-02-25T20:32:03.217Z,3.34
2023-02-25T20:34:50.264Z,3.23
2023-02-25T20:37:41.562Z,3.25
2023-02-25T20:40:28.643Z,3.30
2023-02-25T20:43:16.463Z,3.28
2023-02-25T20:46:03.223Z,3.27
2023-02-25T20:48:49.810Z,3.19
2023-02-25T20:51:36.856Z,3.18
2023-02-25T20:54:24.999Z,3.36
2023-02-25T20:57:14.924Z,3.40
2023-02-25T21:00:01.796Z,3.35
2023-02-25T21:02:48.679Z,3.66
2023-02-25T21:05:35.568Z,3.55
2023-02-25T21:08:22.325Z,3.45
2023-02-25T21:11:10.488Z,3.62
2023-02-25T21:13:57.306Z,3.57
2023-02-25T21:16:44.076Z,3.50
2023-02-25T21:19:30.861Z,3.40
2023-02-25T21:22:17.698Z,3.37
2023-02-25T21:25:04.982Z,3.45
2023-02-25T21:27:52.822Z,3.70
2023-02-25T21:30:39.737Z,3.69
2023-02-25T21:33:26.516Z,3.73
2023-02-25T21:36:13.558Z,3.55
2023-02-25T21:38:59.908Z,3.65
2023-02-25T21:41:46.641Z,3.69
2023-02-25T21:44:34.655Z,3.77
2023-02-25T21:47:21.629Z,3.79
2023-02-25T21:50:09.668Z,3.40
2023-02-25T21:52:56.564Z,3.44
2023-02-25T21:55:43.440Z,3.45
2023-02-25T21:58:30.379Z,3.22
2023-02-25T22:01:21.437Z,3.21
2023-02-25T22:04:10.118Z,3.16
2023-02-25T22:06:56.699Z,3.32
2023-02-25T22:09:43.441Z,3.32
2023-02-25T22:12:30.547Z,3.41
2023-02-25T22:15:17.257Z,3.11
2023-02-25T22:18:05.809Z,3.26
2023-02-25T22:20:53.343Z,3.31
2023-02-25T22:23:40.870Z,3.40
2023-02-25T22:26:30.093Z,3.48
2023-02-25T22:29:17.194Z,3.24
2023-02-25T22:32:03.927Z,3.45
2023-02-25T22:34:51.898Z,3.58
2023-02-25T22:37:38.816Z,3.46
2023-02-25T22:40:25.664Z,3.36
2023-02-25T22:43:12.346Z,3.26
2023-02-25T22:46:11.960Z,3.46
2023-02-25T22:49:00.276Z,3.54
2023-02-25T22:51:48.650Z,3.33
2023-02-25T22:54:35.240Z,3.36
2023-02-25T22:57:22.286Z,3.54
2023-02-25T23:00:17.132Z,3.60
2023-02-25T23:03:04.106Z,3.61
2023-02-25T23:05:54.315Z,3.68
2023-02-25T23:08:44.526Z,3.46
2023-02-25T23:11:34.890Z,3.42
2023-02-25T23:14:22.162Z,3.65
2023-02-25T23:17:13.749Z,3.48
2023-02-25T23:20:10.530Z,3.69
2023-02-25T23:22:57.414Z,3.66
2023-02-25T23:25:51.630Z,3.29
2023-02-25T23:28:41.469Z,3.46
2023-02-25T23:31:32.711Z,3.20
2023-02-25T23:34:28.167Z,3.16
2023-02-25T23:37:15.315Z,3.13
2023-02-25T23:40:05.805Z,3.14
2023-02-25T23:42:54.630Z,3.36
2023-02-25T23:45:43.881Z,3.25
2023-02-25T23:48:32.806Z,3.16
2023-02-25T23:51:19.518Z,3.12
2023-02-25T23:54:07.342Z,3.21
2023-02-25T23:56:54.094Z,3.17
2023-02-25T23:59:42.660Z,3.34
